createdAt,value
2023-01-23T00:01:51.851Z,6.15
2023-01-23T00:04:18.448Z,6.90
2023-01-23T00:06:45.019Z,7.40
2023-01-23T00:09:11.570Z,6.15
2023-01-23T00:11:39.472Z,7.85
2023-01-23T00:14:06.139Z,7.05
2023-01-23T00:16:33.201Z,6.50
2023-01-23T00:19:00.310Z,6.47
2023-01-23T00:21:28.654Z,6.50
2023-01-23T00:24:00.659Z,5.88
2023-01-23T00:26:29.122Z,6.05
2023-01-23T00:28:57.424Z,5.93
2023-01-23T00:31:27.301Z,6.32
2023-01-23T00:33:55.593Z,5.68
2023-01-23T00:36:22.588Z,5.80
2023-01-23T00:38:49.345Z,6.10
2023-01-23T00:41:15.941Z,6.27
2023-01-23T00:43:42.639Z,5.82
2023-01-23T00:46:10.617Z,6.00
2023-01-23T00:48:37.230Z,5.47
2023-01-23T00:51:04.695Z,5.95
2023-01-23T00:53:31.337Z,5.60
2023-01-23T00:55:57.863Z,5.60
2023-01-23T00:58:24.983Z,5.85
2023-01-23T01:00:52.019Z,6.45
2023-01-23T01:03:20.155Z,6.18
2023-01-23T01:05:47.299Z,6.70
2023-01-23T01:08:13.841Z,6.00
2023-01-23T01:10:40.375Z,7.63
2023-01-23T01:13:07.898Z,8.25
2023-01-23T01:15:34.492Z,6.30
2023-01-23T01:18:01.065Z,6.17
2023-01-23T01:20:29.354Z,5.55
2023-01-23T01:22:57.817Z,6.45
2023-01-23T01:25:24.624Z,5.85
2023-01-23T01:27:51.134Z,5.93
2023-01-23T01:30:18.785Z,5.73
2023-01-23T01:32:45.775Z,5.70
2023-01-23T01:35:12.539Z,6.03
2023-01-23T01:37:41.198Z,5.05
2023-01-23T01:40:13.263Z,5.82
2023-01-23T01:42:41.761Z,5.47
2023-01-23T01:45:42.002Z,5.70
2023-01-23T01:48:08.689Z,5.30
2023-01-23T01:50:35.359Z,5.25
2023-01-23T01:53:03.447Z,5.75
2023-01-23T01:55:30.383Z,5.80
2023-01-23T01:57:57.218Z,5.32
2023-01-23T02:00:23.839Z,5.63
2023-01-23T02:02:53.456Z,5.47
2023-01-23T02:05:24.209Z,5.70
2023-01-23T02:07:54.779Z,5.50
2023-01-23T02:10:23.058Z,5.13
2023-01-23T02:12:52.149Z,6.18
2023-01-23T02:15:21.181Z,5.85
2023-01-23T02:17:51.391Z,5.82
2023-01-23T02:20:22.266Z,5.57
2023-01-23T02:22:55.251Z,4.97
2023-01-23T02:25:30.684Z,5.30
2023-01-23T02:27:58.593Z,5.82
2023-01-23T02:30:25.316Z,5.70
2023-01-23T02:32:51.899Z,6.33
2023-01-23T02:35:23.487Z,6.20
2023-01-23T02:37:54.567Z,6.03
2023-01-23T02:40:30.644Z,6.38
2023-01-23T02:42:59.335Z,5.80
2023-01-23T02:45:26.084Z,5.93
2023-01-23T02:47:52.624Z,5.75
2023-01-23T02:50:19.638Z,5.45
2023-01-23T02:52:46.418Z,5.50
2023-01-23T02:55:12.991Z,5.75
2023-01-23T02:57:39.512Z,5.93
2023-01-23T03:00:08.876Z,6.00
2023-01-23T03:02:35.494Z,5.22
2023-01-23T03:05:02.079Z,6.20
2023-01-23T03:07:28.792Z,5.78
2023-01-23T03:09:55.373Z,6.13
2023-01-23T03:12:22.117Z,6.43
2023-01-23T03:14:48.678Z,5.85
2023-01-23T03:17:16.743Z,5.85
2023-01-23T03:19:43.273Z,5.95
2023-01-23T03:22:09.886Z,5.83
2023-01-23T03:24:36.481Z,5.80
2023-01-23T03:27:03.133Z,5.15
2023-01-23T03:29:29.717Z,4.78
2023-01-23T03:31:56.303Z,5.50
2023-01-23T03:34:24.216Z,5.00
2023-01-23T03:36:50.752Z,5.30
2023-01-23T03:39:17.311Z,5.05
2023-01-23T03:41:43.958Z,4.60
2023-01-23T03:44:10.580Z,4.70
2023-01-23T03:46:37.302Z,3.93
2023-01-23T03:49:03.847Z,4.70
2023-01-23T03:51:31.923Z,3.63
2023-01-23T03:53:58.581Z,4.25
2023-01-23T03:56:25.438Z,4.38
2023-01-23T03:58:51.955Z,3.90
2023-01-23T04:01:18.603Z,4.30
2023-01-23T04:03:45.247Z,4.07
2023-01-23T04:06:11.798Z,4.13
2023-01-23T04:08:39.724Z,4.35
2023-01-23T04:11:08.051Z,3.90
2023-01-23T04:13:34.605Z,4.03
2023-01-23T04:16:01.556Z,3.75
2023-01-23T04:18:28.870Z,3.70
2023-01-23T04:20:55.912Z,3.97
2023-01-23T04:23:23.243Z,4.07
2023-01-23T04:25:51.795Z,3.70
2023-01-23T04:28:18.807Z,3.63
2023-01-23T04:30:45.829Z,3.67
2023-01-23T04:33:12.740Z,4.13
2023-01-23T04:35:39.339Z,3.90
2023-01-23T04:38:05.939Z,3.67
2023-01-23T04:40:32.535Z,3.78
2023-01-23T04:43:00.575Z,3.80
2023-01-23T04:45:27.172Z,3.55
2023-01-23T04:47:53.793Z,3.87
2023-01-23T04:50:20.668Z,3.35
2023-01-23T04:52:47.515Z,3.90
2023-01-23T04:55:14.423Z,3.90
2023-01-23T04:57:41.135Z,4.40
2023-01-23T05:00:10.620Z,3.47
2023-01-23T05:02:37.279Z,3.42
2023-01-23T05:05:04.613Z,3.22
2023-01-23T05:07:31.172Z,3.38
2023-01-23T05:09:57.752Z,3.95
2023-01-23T05:12:24.315Z,4.10
2023-01-23T05:14:50.847Z,4.03
2023-01-23T05:17:18.775Z,3.85
2023-01-23T05:19:45.325Z,4.22
2023-01-23T05:22:11.910Z,4.57
2023-01-23T05:24:38.652Z,4.47
2023-01-23T05:27:05.191Z,4.50
2023-01-23T05:29:31.853Z,4.25
2023-01-23T05:31:58.533Z,4.55
2023-01-23T05:34:26.785Z,4.95
2023-01-23T05:36:53.590Z,4.37
2023-01-23T05:39:20.160Z,4.38
2023-01-23T05:41:46.856Z,4.72
2023-01-23T05:44:13.860Z,4.82
2023-01-23T05:46:40.369Z,4.80
2023-01-23T05:49:06.870Z,5.33
2023-01-23T05:51:34.808Z,4.32
2023-01-23T05:54:01.997Z,5.20
2023-01-23T05:56:28.941Z,4.70
2023-01-23T05:58:55.958Z,5.15
2023-01-23T06:01:22.715Z,4.97
2023-01-23T06:03:49.266Z,5.47
2023-01-23T06:06:16.046Z,5.22
2023-01-23T06:08:44.186Z,5.47
2023-01-23T06:11:10.723Z,5.50
2023-01-23T06:13:37.290Z,5.83
2023-01-23T06:16:04.321Z,5.63
2023-01-23T06:18:30.909Z,6.50
2023-01-23T06:20:58.271Z,6.05
2023-01-23T06:23:24.992Z,5.68
2023-01-23T06:25:53.463Z,6.33
2023-01-23T06:28:20.030Z,6.28
2023-01-23T06:30:46.710Z,6.47
2023-01-23T06:33:13.580Z,5.80
2023-01-23T06:35:40.178Z,7.30
2023-01-23T06:38:06.760Z,5.60
2023-01-23T06:40:33.312Z,5.80
2023-01-23T06:43:01.225Z,6.20
2023-01-23T06:45:27.734Z,6.85
2023-01-23T06:47:54.295Z,6.65
2023-01-23T06:50:21.203Z,6.47
2023-01-23T06:52:47.935Z,6.50
2023-01-23T06:55:14.688Z,6.38
2023-01-23T06:57:41.332Z,7.13
2023-01-23T07:00:11.006Z,6.32
2023-01-23T07:02:38.295Z,6.33
2023-01-23T07:05:05.665Z,6.57
2023-01-23T07:07:32.429Z,6.85
2023-01-23T07:09:59.059Z,7.13
2023-01-23T07:12:25.795Z,6.57
2023-01-23T07:14:52.391Z,6.70
2023-01-23T07:17:20.486Z,7.32
2023-01-23T07:19:47.078Z,6.93
2023-01-23T07:22:17.090Z,6.45
2023-01-23T07:24:43.668Z,6.75
2023-01-23T07:27:10.255Z,6.20
2023-01-23T07:29:36.807Z,6.80
2023-01-23T07:32:03.606Z,5.57
2023-01-23T07:34:31.737Z,7.25
2023-01-23T07:36:58.890Z,7.38
2023-01-23T07:39:25.590Z,7.60
2023-01-23T07:41:52.137Z,7.70
2023-01-23T07:44:21.009Z,6.25
2023-01-23T07:46:48.557Z,5.65
2023-01-23T07:49:15.565Z,5.82
2023-01-23T07:51:43.762Z,6.00
2023-01-23T07:54:10.593Z,6.07
2023-01-23T07:56:37.386Z,5.50
2023-01-23T07:59:04.108Z,6.10
2023-01-23T08:01:30.680Z,6.85
2023-01-23T08:03:57.531Z,7.13
2023-01-23T08:06:24.160Z,6.50
2023-01-23T08:08:52.100Z,5.53
2023-01-23T08:11:18.668Z,6.35
2023-01-23T08:13:48.898Z,5.63
2023-01-23T08:16:15.725Z,5.83
2023-01-23T08:18:42.288Z,6.55
2023-01-23T08:21:10.008Z,6.72
2023-01-23T08:23:36.641Z,6.93
2023-01-23T08:26:06.947Z,6.93
2023-01-23T08:28:33.470Z,6.20
2023-01-23T08:31:00.470Z,5.95
2023-01-23T08:33:27.122Z,6.43
2023-01-23T08:35:55.374Z,6.40
2023-01-23T08:38:22.890Z,6.60
2023-01-23T08:40:51.189Z,6.90
2023-01-23T08:43:20.040Z,6.75
2023-01-23T08:45:49.178Z,6.85
2023-01-23T08:48:16.130Z,7.07
2023-01-23T08:50:43.125Z,6.63
2023-01-23T08:53:09.667Z,6.57
2023-01-23T08:55:36.210Z,6.35
2023-01-23T08:58:02.772Z,6.45
2023-01-23T09:00:30.766Z,6.10
2023-01-23T09:02:59.422Z,6.40
2023-01-23T09:05:26.667Z,14.43
2023-01-23T09:07:53.257Z,23.98
2023-01-23T09:10:20.232Z,11.50
2023-01-23T09:12:46.960Z,6.65
2023-01-23T09:15:13.637Z,6.68
2023-01-23T09:17:41.543Z,8.23
2023-01-23T09:20:09.812Z,7.43
2023-01-23T09:22:36.639Z,7.30
2023-01-23T09:25:03.588Z,7.43
2023-01-23T09:27:30.180Z,6.82
2023-01-23T09:29:56.727Z,6.60
2023-01-23T09:32:23.253Z,6.22
2023-01-23T09:34:51.169Z,5.90
2023-01-23T09:37:17.931Z,6.50
2023-01-23T09:39:44.632Z,7.45
2023-01-23T09:42:17.317Z,7.30
2023-01-23T09:44:47.199Z,7.57
2023-01-23T09:47:18.416Z,7.50
2023-01-23T09:49:49.405Z,7.00
2023-01-23T09:52:21.263Z,6.22
2023-01-23T09:54:50.319Z,7.00
2023-01-23T09:57:22.829Z,6.50
2023-01-23T10:00:00.235Z,6.80
2023-01-23T10:02:28.359Z,5.88
2023-01-23T10:04:57.327Z,7.28
2023-01-23T10:07:48.002Z,6.77
2023-01-23T10:10:50.737Z,7.07
2023-01-23T10:13:22.650Z,6.50
2023-01-23T10:16:18.803Z,6.68
2023-01-23T10:19:02.673Z,6.97
2023-01-23T10:21:34.298Z,7.30
2023-01-23T10:24:09.817Z,6.65
2023-01-23T10:26:45.382Z,6.72
2023-01-23T10:29:18.725Z,5.90
2023-01-23T10:31:51.780Z,6.90
2023-01-23T10:34:23.906Z,6.40
2023-01-23T10:37:05.243Z,6.82
2023-01-23T10:39:44.673Z,6.40
2023-01-23T10:42:12.494Z,6.03
2023-01-23T10:44:39.423Z,7.00
2023-01-23T10:47:17.988Z,6.83
2023-01-23T10:49:45.834Z,6.03
2023-01-23T10:52:30.511Z,6.25
2023-01-23T10:54:58.824Z,6.40
2023-01-23T10:57:27.272Z,6.72
2023-01-23T10:59:57.025Z,6.50
2023-01-23T11:02:28.680Z,5.90
2023-01-23T11:04:55.774Z,6.93
2023-01-23T11:07:24.043Z,6.57
2023-01-23T11:09:54.852Z,6.63
2023-01-23T11:12:24.857Z,6.73
2023-01-23T11:15:10.498Z,6.55
2023-01-23T11:17:38.056Z,6.70
2023-01-23T11:20:11.877Z,6.80
2023-01-23T11:22:40.243Z,6.10
2023-01-23T11:25:29.498Z,6.80
2023-01-23T11:27:58.587Z,6.25
2023-01-23T11:30:40.394Z,5.80
2023-01-23T11:33:18.824Z,6.10
2023-01-23T11:35:59.683Z,6.32
2023-01-23T11:38:31.319Z,6.90
2023-01-23T11:40:58.160Z,7.28
2023-01-23T11:43:26.121Z,6.93
2023-01-23T11:46:05.976Z,6.57
2023-01-23T11:48:48.252Z,6.57
2023-01-23T11:51:20.909Z,6.40
2023-01-23T11:53:59.225Z,6.70
2023-01-23T11:56:59.786Z,6.30
2023-01-23T11:59:52.635Z,6.03
2023-01-23T12:02:47.042Z,7.90
2023-01-23T12:06:18.759Z,6.53
2023-01-23T12:08:54.747Z,5.78
2023-01-23T12:11:22.681Z,5.47
2023-01-23T12:13:59.921Z,5.53
2023-01-23T12:16:39.845Z,5.88
2023-01-23T12:19:19.021Z,6.10
2023-01-23T12:21:53.215Z,5.97
2023-01-23T12:24:34.926Z,5.47
2023-01-23T12:27:09.825Z,6.75
2023-01-23T12:29:53.615Z,6.47
2023-01-23T12:32:35.722Z,7.40
2023-01-23T12:35:17.190Z,8.00
2023-01-23T12:38:01.140Z,7.68
2023-01-23T12:40:33.531Z,7.18
2023-01-23T12:43:04.064Z,6.85
2023-01-23T12:45:32.767Z,6.77
2023-01-23T12:48:06.706Z,6.88
2023-01-23T12:50:40.587Z,6.30
2023-01-23T12:53:11.051Z,6.80
2023-01-23T12:55:42.408Z,6.80
2023-01-23T12:58:15.078Z,7.50
2023-01-23T13:00:55.129Z,6.70
2023-01-23T13:03:46.733Z,6.60
2023-01-23T13:06:30.400Z,6.93
2023-01-23T13:09:17.545Z,7.25
2023-01-23T13:11:56.582Z,6.20
2023-01-23T13:14:29.190Z,6.32
2023-01-23T13:16:59.962Z,6.50
2023-01-23T13:19:29.808Z,5.68
2023-01-23T13:22:04.813Z,6.40
2023-01-23T13:24:47.165Z,6.07
2023-01-23T13:27:40.732Z,6.22
2023-01-23T13:30:49.331Z,5.70
2023-01-23T13:33:51.557Z,5.85
2023-01-23T13:36:29.508Z,5.60
2023-01-23T13:39:25.449Z,5.67
2023-01-23T13:42:34.778Z,5.22
2023-01-23T13:45:24.682Z,5.95
2023-01-23T14:24:51.039Z,6.72
2023-01-23T14:27:24.261Z,7.15
2023-01-23T14:29:58.919Z,6.70
2023-01-23T14:32:28.372Z,6.53
2023-01-23T14:34:54.986Z,6.70
2023-01-23T14:37:22.190Z,6.57
2023-01-23T14:39:52.992Z,6.10
2023-01-23T14:42:25.877Z,7.15
2023-01-23T14:44:54.311Z,6.88
2023-01-23T14:47:27.310Z,6.80
2023-01-23T14:49:56.304Z,6.90
2023-01-23T14:52:25.112Z,7.40
2023-01-23T14:54:54.743Z,6.60
2023-01-23T14:57:25.079Z,7.28
2023-01-23T14:59:55.359Z,7.00
2023-01-23T15:02:31.609Z,6.75
2023-01-23T15:05:17.026Z,6.78
2023-01-23T15:07:44.905Z,6.72
2023-01-23T15:10:17.670Z,6.50
2023-01-23T15:12:55.606Z,5.77
2023-01-23T15:15:24.057Z,5.78
2023-01-23T15:17:52.298Z,5.45
2023-01-23T15:20:34.315Z,5.95
2023-01-23T15:23:22.355Z,5.97
2023-01-23T15:25:57.486Z,5.93
2023-01-23T15:28:39.287Z,6.53
2023-01-23T15:31:06.163Z,5.90
2023-01-23T15:33:33.707Z,6.22
2023-01-23T15:36:05.936Z,6.20
2023-01-23T15:38:32.635Z,6.87
2023-01-23T15:41:00.490Z,6.15
2023-01-23T15:43:27.025Z,5.93
2023-01-23T15:45:55.054Z,6.18
2023-01-23T15:48:21.602Z,6.20
2023-01-23T15:50:48.289Z,6.30
2023-01-23T15:53:15.871Z,6.18
2023-01-23T15:55:42.792Z,6.60
2023-01-23T15:58:13.394Z,6.18
2023-01-23T16:00:40.000Z,6.63
2023-01-23T16:03:08.079Z,6.97
2023-01-23T16:05:36.411Z,6.68
2023-01-23T16:08:04.001Z,6.80
2023-01-23T16:10:37.339Z,6.20
2023-01-23T16:13:04.274Z,6.63
2023-01-23T16:15:32.587Z,6.87
2023-01-23T16:17:59.696Z,6.15
2023-01-23T16:20:30.775Z,7.13
2023-01-23T16:23:01.857Z,5.95
2023-01-23T16:25:43.530Z,6.00
2023-01-23T16:28:12.859Z,5.73
2023-01-23T16:30:39.527Z,5.97
2023-01-23T16:33:06.280Z,5.40
2023-01-23T16:35:34.679Z,6.40
2023-01-23T16:38:01.260Z,6.88
2023-01-23T16:40:29.334Z,7.47
2023-01-23T16:42:56.406Z,6.75
2023-01-23T16:45:25.442Z,6.53
2023-01-23T16:47:52.597Z,6.57
2023-01-23T16:50:22.731Z,6.65
2023-01-23T16:52:55.204Z,6.50
2023-01-23T16:55:25.028Z,6.20
2023-01-23T16:57:54.658Z,6.40
2023-01-23T17:00:34.104Z,5.88
2023-01-23T17:03:04.674Z,6.85
2023-01-23T17:05:31.265Z,6.83
2023-01-23T17:07:59.219Z,6.03
2023-01-23T17:10:37.811Z,5.70
2023-01-23T17:13:11.682Z,5.90
2023-01-23T17:15:38.348Z,6.35
2023-01-23T17:18:05.252Z,5.97
2023-01-23T17:20:32.065Z,6.00
2023-01-23T17:23:00.040Z,6.63
2023-01-23T17:25:27.112Z,6.30
2023-01-23T17:28:11.547Z,7.00
2023-01-23T17:30:40.600Z,6.57
2023-01-23T17:33:16.202Z,7.18
2023-01-23T17:35:43.317Z,6.65
2023-01-23T17:38:17.350Z,8.00
2023-01-23T17:40:44.009Z,8.65
2023-01-23T17:43:11.485Z,7.10
2023-01-23T17:45:38.666Z,9.07
2023-01-23T17:48:05.730Z,7.30
2023-01-23T17:50:32.305Z,7.80
2023-01-23T17:52:58.819Z,8.00
2023-01-23T17:55:26.922Z,7.13
2023-01-23T17:57:53.485Z,6.95
2023-01-23T18:00:21.338Z,7.50
2023-01-23T18:02:52.333Z,6.28
2023-01-23T18:05:19.237Z,7.57
2023-01-23T18:07:53.773Z,6.27
2023-01-23T18:10:21.703Z,6.13
2023-01-23T18:12:57.317Z,6.30
2023-01-23T18:15:33.717Z,7.18
2023-01-23T18:18:14.218Z,7.55
2023-01-23T18:20:41.401Z,6.73
2023-01-23T18:23:11.543Z,7.20
2023-01-23T18:25:41.625Z,6.28
2023-01-23T18:28:17.778Z,6.00
2023-01-23T18:30:55.489Z,5.63
2023-01-23T18:33:36.753Z,6.00
2023-01-23T18:36:11.615Z,5.85
2023-01-23T18:39:02.007Z,6.07
2023-01-23T18:41:29.331Z,6.30
2023-01-23T18:44:05.201Z,5.90
2023-01-23T18:46:32.294Z,6.20
2023-01-23T18:48:59.882Z,6.13
2023-01-23T18:51:37.192Z,6.38
2023-01-23T18:54:17.409Z,6.20
2023-01-23T18:56:55.915Z,6.00
2023-01-23T18:59:30.459Z,5.53
2023-01-23T19:02:09.674Z,5.20
2023-01-23T19:04:43.038Z,5.55
2023-01-23T19:07:15.376Z,5.82
2023-01-23T19:09:42.355Z,5.63
2023-01-23T19:12:25.762Z,5.63
2023-01-23T19:15:09.451Z,6.32
2023-01-23T19:17:46.044Z,5.57
2023-01-23T19:20:30.431Z,5.35
2023-01-23T19:23:06.441Z,5.40
2023-01-23T19:25:33.321Z,6.10
2023-01-23T19:28:00.763Z,6.72
2023-01-23T19:30:29.542Z,6.78
2023-01-23T19:32:56.299Z,6.40
2023-01-23T19:35:22.876Z,5.50
2023-01-23T19:37:49.799Z,5.80
2023-01-23T19:40:17.286Z,6.25
2023-01-23T19:42:54.239Z,6.85
2023-01-23T19:45:25.390Z,6.10
2023-01-23T19:47:53.329Z,5.40
2023-01-23T19:50:22.981Z,6.13
2023-01-23T19:52:49.768Z,6.70
2023-01-23T19:55:23.891Z,6.07
2023-01-23T19:57:50.445Z,5.38
2023-01-23T20:00:18.617Z,5.75
2023-01-23T20:02:45.333Z,5.50
2023-01-23T20:05:13.288Z,5.13
2023-01-23T20:07:39.891Z,4.63
2023-01-23T20:10:08.330Z,5.05
2023-01-23T20:12:40.386Z,4.82
2023-01-23T20:15:08.231Z,4.70
2023-01-23T20:17:34.961Z,4.72
2023-01-23T20:20:01.476Z,5.22
2023-01-23T20:22:30.208Z,4.80
2023-01-23T20:24:56.740Z,5.10
2023-01-23T20:27:23.453Z,4.20
2023-01-23T20:29:51.072Z,4.60
2023-01-23T20:32:17.816Z,4.80
2023-01-23T20:34:44.828Z,4.60
2023-01-23T20:37:11.604Z,4.00
2023-01-23T20:39:39.701Z,3.97
2023-01-23T20:42:06.331Z,4.30
2023-01-23T20:44:32.970Z,4.30
2023-01-23T20:46:59.688Z,4.72
2023-01-23T20:49:26.468Z,4.78
2023-01-23T20:51:53.056Z,4.37
2023-01-23T20:54:19.760Z,4.32
2023-01-23T20:56:47.659Z,4.22
2023-01-23T20:59:14.224Z,3.92
2023-01-23T21:01:42.074Z,4.28
2023-01-23T21:04:08.611Z,4.90
2023-01-23T21:06:35.158Z,4.70
2023-01-23T21:09:01.868Z,4.40
2023-01-23T21:11:28.399Z,5.03
2023-01-23T21:13:56.265Z,4.47
2023-01-23T21:16:22.852Z,4.93
2023-01-23T21:18:49.386Z,4.32
2023-01-23T21:21:19.768Z,3.78
2023-01-23T21:23:46.857Z,4.22
2023-01-23T21:26:13.509Z,4.13
2023-01-23T21:28:40.220Z,4.20
2023-01-23T21:31:13.341Z,4.50
2023-01-23T21:33:40.061Z,4.55
2023-01-23T21:36:07.464Z,4.07
2023-01-23T21:38:34.055Z,3.95
2023-01-23T21:41:01.622Z,4.00
2023-01-23T21:43:28.209Z,4.10
2023-01-23T21:45:54.779Z,3.65
2023-01-23T21:48:28.118Z,3.92
2023-01-23T21:51:03.741Z,3.83
2023-01-23T21:53:30.531Z,3.63
2023-01-23T21:55:57.067Z,3.90
2023-01-23T21:58:23.654Z,3.35
2023-01-23T22:00:56.447Z,4.25
2023-01-23T22:03:24.451Z,4.18
2023-01-23T22:05:51.120Z,4.00
2023-01-23T22:08:17.714Z,4.45
2023-01-23T22:10:44.277Z,4.10
2023-01-23T22:13:10.860Z,4.10
2023-01-23T22:15:38.561Z,3.75
2023-01-23T22:18:05.181Z,4.30
2023-01-23T22:20:33.134Z,4.38
2023-01-23T22:22:59.799Z,4.00
2023-01-23T22:25:26.348Z,4.30
2023-01-23T22:27:52.934Z,4.38
2023-01-23T22:30:19.563Z,4.77
2023-01-23T22:32:46.115Z,4.20
2023-01-23T22:35:12.683Z,4.63
2023-01-23T22:37:40.563Z,3.72
2023-01-23T22:40:08.816Z,3.90
2023-01-23T22:42:35.621Z,3.60
2023-01-23T22:45:02.459Z,3.90
2023-01-23T22:47:29.070Z,4.35
2023-01-23T22:49:55.675Z,3.80
2023-01-23T22:52:22.411Z,3.65
2023-01-23T22:54:50.339Z,4.07
2023-01-23T22:57:17.159Z,3.85
2023-01-23T22:59:45.864Z,3.75
2023-01-23T23:02:13.408Z,3.63
2023-01-23T23:04:40.120Z,3.60
2023-01-23T23:07:06.646Z,4.00
2023-01-23T23:09:33.237Z,3.75
2023-01-23T23:12:01.143Z,4.68
2023-01-23T23:14:27.728Z,4.15
2023-01-23T23:16:54.265Z,4.07
2023-01-23T23:19:21.039Z,3.73
2023-01-23T23:21:47.634Z,3.90
2023-01-23T23:24:14.438Z,4.40
2023-01-23T23:26:41.040Z,4.20
2023-01-23T23:29:09.028Z,4.30
2023-01-23T23:31:35.646Z,3.90
2023-01-23T23:34:02.774Z,4.18
2023-01-23T23:36:29.359Z,4.25
2023-01-23T23:38:55.895Z,4.13
2023-01-23T23:41:22.622Z,5.05
2023-01-23T23:43:49.256Z,3.80
2023-01-23T23:46:18.816Z,4.25
2023-01-23T23:48:45.409Z,4.20
2023-01-23T23:51:14.143Z,4.15
2023-01-23T23:53:42.734Z,4.18
2023-01-23T23:56:14.061Z,4.43
2023-01-23T23:58:40.619Z,4.00
